createdAt,value
2022-11-18T00:01:06.716Z,18.05
2022-11-18T00:03:33.025Z,17.95
2022-11-18T00:05:59.302Z,17.33
2022-11-18T00:08:26.468Z,17.60
2022-11-18T00:10:53.979Z,17.95
2022-11-18T00:13:38.857Z,17.45
2022-11-18T00:16:06.680Z,16.42
2022-11-18T00:18:33.287Z,16.40
2022-11-18T00:21:03.673Z,15.63
2022-11-18T00:25:56.215Z,15.00
2022-11-18T00:28:22.602Z,16.85
2022-11-18T00:30:48.856Z,17.00
2022-11-18T00:33:15.148Z,18.25
2022-11-18T00:35:41.461Z,16.60
2022-11-18T00:38:07.726Z,16.95
2022-11-18T00:40:34.000Z,18.05
2022-11-18T00:43:00.661Z,16.60
2022-11-18T00:45:26.954Z,16.15
2022-11-18T00:47:53.218Z,17.33
2022-11-18T00:50:19.498Z,15.10
2022-11-18T00:52:45.870Z,17.13
2022-11-18T00:55:12.204Z,15.82
2022-11-18T00:57:38.473Z,16.77
2022-11-18T01:00:05.024Z,17.58
2022-11-18T01:02:31.356Z,16.85
2022-11-18T01:04:57.634Z,16.25
2022-11-18T01:07:24.037Z,16.50
2022-11-18T01:09:50.418Z,16.17
2022-11-18T01:12:35.056Z,16.00
2022-11-18T01:15:01.351Z,17.75
2022-11-18T01:17:29.881Z,16.42
2022-11-18T01:19:56.156Z,16.35
2022-11-18T01:22:22.538Z,17.10
2022-11-18T01:24:48.891Z,18.48
2022-11-18T01:27:15.173Z,17.73
2022-11-18T01:29:41.536Z,17.27
2022-11-18T01:32:24.985Z,16.80
2022-11-18T01:34:51.528Z,18.33
2022-11-18T01:37:17.790Z,16.98
2022-11-18T01:39:44.069Z,19.00
2022-11-18T01:42:16.864Z,19.25
2022-11-18T01:45:02.297Z,18.67
2022-11-18T01:47:31.341Z,17.13
2022-11-18T01:49:58.940Z,17.15
2022-11-18T01:52:25.402Z,17.38
2022-11-18T01:54:55.529Z,18.45
2022-11-18T01:57:22.983Z,16.65
2022-11-18T01:59:50.223Z,17.83
2022-11-18T02:02:16.616Z,18.67
2022-11-18T02:04:44.657Z,16.45
2022-11-18T02:07:11.434Z,16.95
2022-11-18T02:09:38.224Z,18.15
2022-11-18T02:12:05.072Z,15.35
2022-11-18T02:14:33.207Z,16.55
2022-11-18T02:17:02.554Z,17.20
2022-11-18T02:19:50.939Z,17.33
2022-11-18T02:22:23.245Z,16.27
2022-11-18T02:24:52.568Z,18.45
2022-11-18T02:27:37.745Z,15.98
2022-11-18T02:30:09.229Z,17.52
2022-11-18T02:32:41.792Z,18.27
2022-11-18T02:35:18.695Z,17.80
2022-11-18T02:37:50.817Z,16.35
2022-11-18T02:40:21.457Z,15.02
2022-11-18T02:42:50.985Z,19.27
2022-11-18T02:45:18.937Z,18.25
2022-11-18T02:47:46.601Z,17.63
2022-11-18T02:50:14.977Z,18.10
2022-11-18T02:52:42.514Z,17.52
2022-11-18T02:55:10.115Z,18.70
2022-11-18T02:57:37.514Z,18.15
2022-11-18T03:00:04.279Z,18.88
2022-11-18T03:02:47.591Z,20.35
2022-11-18T03:05:19.266Z,18.40
2022-11-18T03:07:49.166Z,18.50
2022-11-18T03:10:15.757Z,17.45
2022-11-18T03:12:57.478Z,18.02
2022-11-18T03:15:29.471Z,18.30
2022-11-18T03:17:55.757Z,18.42
2022-11-18T03:20:25.207Z,17.65
2022-11-18T03:22:57.614Z,17.93
2022-11-18T03:25:44.169Z,19.98
2022-11-18T03:28:14.673Z,19.63
2022-11-18T03:30:44.962Z,20.25
2022-11-18T03:33:14.130Z,20.48
2022-11-18T03:35:42.482Z,18.75
2022-11-18T03:38:23.953Z,19.85
2022-11-18T03:40:54.199Z,20.08
2022-11-18T03:43:22.355Z,18.70
2022-11-18T03:45:50.605Z,20.25
2022-11-18T03:48:18.190Z,19.48
2022-11-18T03:50:47.710Z,19.50
2022-11-18T03:53:14.809Z,18.10
2022-11-18T03:55:42.861Z,19.42
2022-11-18T03:58:11.501Z,19.20
2022-11-18T04:00:48.527Z,20.50
2022-11-18T04:03:14.856Z,19.88
2022-11-18T04:05:42.559Z,19.63
2022-11-18T04:08:11.972Z,20.67
2022-11-18T04:10:40.805Z,20.60
2022-11-18T04:13:07.154Z,19.63
2022-11-18T04:15:36.494Z,18.65
2022-11-18T04:18:02.810Z,18.65
2022-11-18T04:20:29.111Z,20.55
2022-11-18T04:22:55.837Z,20.13
2022-11-18T04:25:24.298Z,18.85
2022-11-18T04:27:50.844Z,19.42
2022-11-18T04:30:17.340Z,21.75
2022-11-18T04:32:43.603Z,19.95
2022-11-18T04:35:09.885Z,19.38
2022-11-18T04:37:36.230Z,19.00
2022-11-18T04:40:02.602Z,20.38
2022-11-18T04:42:28.945Z,18.95
2022-11-18T04:44:55.250Z,20.13
2022-11-18T04:47:21.554Z,19.30
2022-11-18T04:49:47.856Z,20.17
2022-11-18T04:52:14.277Z,20.27
2022-11-18T04:54:40.558Z,20.15
2022-11-18T04:57:06.833Z,18.15
2022-11-18T04:59:33.231Z,18.17
2022-11-18T05:02:00.985Z,20.08
2022-11-18T05:04:29.960Z,18.52
2022-11-18T05:06:56.661Z,17.92
2022-11-18T05:09:27.241Z,18.33
2022-11-18T05:12:15.077Z,19.80
2022-11-18T05:14:45.205Z,18.23
2022-11-18T05:17:14.613Z,18.50
2022-11-18T05:19:40.962Z,20.38
2022-11-18T05:22:07.400Z,17.73
2022-11-18T05:24:33.826Z,19.63
2022-11-18T05:27:00.124Z,17.73
2022-11-18T05:29:26.408Z,19.58
2022-11-18T05:31:52.769Z,18.75
2022-11-18T05:34:19.577Z,18.15
2022-11-18T05:36:46.097Z,19.45
2022-11-18T05:39:12.381Z,19.13
2022-11-18T05:41:57.498Z,19.38
2022-11-18T05:44:23.819Z,19.60
2022-11-18T05:46:50.167Z,21.77
2022-11-18T05:49:16.734Z,21.35
2022-11-18T05:51:43.218Z,22.67
2022-11-18T05:54:10.066Z,22.60
2022-11-18T05:56:37.485Z,21.77
2022-11-18T05:59:03.948Z,21.33
2022-11-18T06:01:36.601Z,21.30
2022-11-18T06:04:04.057Z,22.52
2022-11-18T06:06:30.350Z,21.40
2022-11-18T06:08:59.448Z,22.10
2022-11-18T06:11:25.977Z,24.88
2022-11-18T06:13:55.054Z,25.30
2022-11-18T06:16:24.433Z,25.42
2022-11-18T06:18:50.852Z,23.88
2022-11-18T06:21:17.322Z,24.70
2022-11-18T06:23:43.838Z,22.77
2022-11-18T06:26:12.030Z,23.38
2022-11-18T06:28:39.574Z,24.13
2022-11-18T06:31:05.864Z,24.17
2022-11-18T06:33:32.206Z,24.02
2022-11-18T06:35:58.492Z,25.27
2022-11-18T06:38:25.116Z,23.83
2022-11-18T06:40:51.828Z,22.73
2022-11-18T06:43:36.807Z,24.45
2022-11-18T06:46:22.516Z,23.23
2022-11-18T06:48:49.115Z,22.50
2022-11-18T06:51:15.562Z,23.50
2022-11-18T06:53:42.163Z,23.35
2022-11-18T06:56:10.309Z,23.98
2022-11-18T06:58:36.655Z,22.27
2022-11-18T07:01:12.301Z,24.52
2022-11-18T07:03:39.209Z,21.85
2022-11-18T07:06:05.826Z,23.17
2022-11-18T07:08:32.172Z,24.83
2022-11-18T07:10:58.449Z,23.33
2022-11-18T07:13:24.747Z,22.65
2022-11-18T07:15:51.032Z,24.17
2022-11-18T07:18:17.301Z,21.35
2022-11-18T07:20:43.574Z,18.90
2022-11-18T07:23:09.848Z,19.20
2022-11-18T07:25:37.422Z,18.90
2022-11-18T07:28:06.379Z,19.65
2022-11-18T07:30:32.658Z,16.73
2022-11-18T07:32:59.122Z,17.38
2022-11-18T07:35:25.401Z,16.75
2022-11-18T07:37:51.655Z,15.73
2022-11-18T07:40:18.053Z,16.45
2022-11-18T07:42:44.323Z,15.57
2022-11-18T07:45:11.446Z,14.98
2022-11-18T07:47:37.942Z,15.13
2022-11-18T07:50:05.074Z,14.57
2022-11-18T07:52:31.360Z,16.25
2022-11-18T07:54:57.634Z,14.18
2022-11-18T07:57:23.974Z,14.57
2022-11-18T07:59:50.249Z,14.85
2022-11-18T08:02:16.642Z,13.38
2022-11-18T08:04:42.951Z,11.85
2022-11-18T08:07:09.903Z,13.18
2022-11-18T08:09:36.249Z,12.43
2022-11-18T08:12:02.534Z,13.70
2022-11-18T08:14:28.845Z,13.63
2022-11-18T08:16:55.337Z,13.77
2022-11-18T08:19:21.648Z,11.23
2022-11-18T08:21:47.929Z,11.82
2022-11-18T08:24:14.218Z,12.43
2022-11-18T08:26:40.522Z,13.20
2022-11-18T08:29:06.782Z,13.40
2022-11-18T08:31:33.223Z,13.13
2022-11-18T08:34:06.778Z,12.48
2022-11-18T08:36:34.204Z,11.95
2022-11-18T08:39:01.306Z,12.23
2022-11-18T08:41:38.041Z,12.27
2022-11-18T08:44:04.596Z,12.07
2022-11-18T08:46:30.937Z,12.38
2022-11-18T08:48:57.509Z,10.07
2022-11-18T08:51:24.228Z,13.02
2022-11-18T08:53:50.931Z,11.52
2022-11-18T08:56:21.623Z,10.50
2022-11-18T08:58:48.067Z,12.25
2022-11-18T09:01:14.403Z,12.32
2022-11-18T09:03:40.799Z,12.10
2022-11-18T09:06:07.151Z,12.48
2022-11-18T09:08:33.442Z,10.43
2022-11-18T09:10:59.717Z,12.68
2022-11-18T09:13:53.365Z,12.50
2022-11-18T09:16:12.791Z,11.90
2022-11-18T09:18:39.067Z,11.02
2022-11-18T09:21:07.174Z,12.77
2022-11-18T09:23:34.809Z,12.35
2022-11-18T09:26:02.772Z,11.43
2022-11-18T09:28:29.525Z,12.15
2022-11-18T09:30:55.856Z,13.32
2022-11-18T09:33:22.672Z,13.38
2022-11-18T09:35:49.029Z,13.30
2022-11-18T09:38:15.486Z,11.93
2022-11-18T09:40:50.694Z,13.07
2022-11-18T09:43:23.771Z,12.02
2022-11-18T09:45:53.065Z,12.60
2022-11-18T09:48:20.438Z,12.77
2022-11-18T09:50:50.053Z,11.85
2022-11-18T09:53:24.429Z,13.05
2022-11-18T09:55:51.475Z,13.00
2022-11-18T09:58:36.086Z,12.10
2022-11-18T10:01:03.562Z,13.35
2022-11-18T10:03:31.314Z,10.95
2022-11-18T10:06:09.208Z,11.32
2022-11-18T10:08:44.554Z,12.15
2022-11-18T10:11:10.824Z,9.95
2022-11-18T10:13:43.430Z,12.13
2022-11-18T10:16:28.221Z,11.70
2022-11-18T10:19:06.766Z,10.85
2022-11-18T10:21:38.283Z,11.82
2022-11-18T10:24:13.775Z,11.15
2022-11-18T10:26:40.984Z,9.70
2022-11-18T10:29:10.912Z,10.52
2022-11-18T10:31:38.425Z,9.32
2022-11-18T10:34:04.724Z,9.82
2022-11-18T10:36:33.113Z,9.60
2022-11-18T10:39:11.683Z,8.05
2022-11-18T10:41:52.209Z,9.05
2022-11-18T10:44:27.880Z,7.18
2022-11-18T10:46:54.335Z,7.82
2022-11-18T10:49:20.697Z,6.90
2022-11-18T10:52:05.637Z,8.98
2022-11-18T10:54:31.926Z,6.88
2022-11-18T10:57:17.030Z,6.47
2022-11-18T10:59:53.430Z,6.85
2022-11-18T11:02:21.022Z,8.45
2022-11-18T11:04:48.561Z,6.43
2022-11-18T11:07:26.656Z,7.97
2022-11-18T11:09:59.340Z,7.05
2022-11-18T11:12:27.473Z,7.00
2022-11-18T11:14:55.621Z,6.90
2022-11-18T11:17:36.089Z,6.65
2022-11-18T11:20:10.286Z,6.90
2022-11-18T11:22:36.577Z,7.68
2022-11-18T11:25:03.229Z,7.60
2022-11-18T11:30:38.745Z,7.07
2022-11-18T11:33:20.042Z,5.75
2022-11-18T11:36:04.938Z,6.03
2022-11-18T11:38:43.509Z,5.90
2022-11-18T11:41:19.170Z,6.28
2022-11-18T11:43:45.441Z,5.93
2022-11-18T11:46:17.555Z,4.88
2022-11-18T11:48:46.957Z,5.22
2022-11-18T11:51:21.361Z,5.88
2022-11-18T11:53:53.691Z,5.13
2022-11-18T11:56:40.480Z,4.82
2022-11-18T11:59:24.315Z,4.85
2022-11-18T12:02:12.821Z,5.18
2022-11-18T12:04:44.573Z,4.63
2022-11-18T12:07:19.462Z,4.53
2022-11-18T12:10:05.585Z,4.90
2022-11-18T12:12:36.675Z,4.60
2022-11-18T12:15:16.858Z,4.60
2022-11-18T12:17:55.713Z,4.38
2022-11-18T12:20:35.840Z,4.85
2022-11-18T12:23:26.409Z,5.55
2022-11-18T12:26:11.324Z,5.10
2022-11-18T12:28:42.123Z,5.70
2022-11-18T12:31:17.609Z,5.40
2022-11-18T12:33:43.830Z,7.47
2022-11-18T12:36:10.104Z,5.35
2022-11-18T12:38:36.413Z,5.78
2022-11-18T12:41:22.732Z,4.95
2022-11-18T12:43:49.351Z,4.80
2022-11-18T12:46:34.522Z,4.50
2022-11-18T12:49:19.872Z,4.90
2022-11-18T12:51:46.528Z,4.80
2022-11-18T12:54:22.491Z,5.20
2022-11-18T12:56:49.382Z,4.75
2022-11-18T12:59:16.106Z,6.45
2022-11-18T13:01:42.711Z,5.70
2022-11-18T13:04:20.025Z,5.78
2022-11-18T13:06:47.347Z,7.18
2022-11-18T13:09:33.336Z,8.10
2022-11-18T13:12:01.489Z,6.60
2022-11-18T13:14:51.369Z,7.45
2022-11-18T13:17:42.418Z,8.02
2022-11-18T13:20:27.662Z,9.23
2022-11-18T13:23:14.409Z,7.00
2022-11-18T13:25:42.517Z,8.70
2022-11-18T13:28:14.885Z,7.90
2022-11-18T13:30:48.385Z,8.70
2022-11-18T13:33:14.693Z,7.40
2022-11-18T13:35:41.154Z,6.60
2022-11-18T13:38:19.241Z,8.73
2022-11-18T13:41:12.475Z,6.97
2022-11-18T13:46:09.287Z,6.40
2022-11-18T13:51:02.290Z,5.95
2022-11-18T13:53:37.011Z,5.95
2022-11-18T13:56:08.113Z,6.47
2022-11-18T13:58:55.759Z,5.97
2022-11-18T14:01:20.807Z,5.40
2022-11-18T14:03:54.310Z,5.28
2022-11-18T14:06:27.577Z,4.75
2022-11-18T14:09:05.157Z,5.35
2022-11-18T14:11:35.919Z,4.38
2022-11-18T14:14:02.371Z,4.30
2022-11-18T14:16:34.244Z,4.00
2022-11-18T14:19:00.534Z,4.72
2022-11-18T14:21:31.234Z,4.55
2022-11-18T14:23:57.869Z,4.78
2022-11-18T14:26:28.299Z,4.63
2022-11-18T14:31:25.183Z,3.40
2022-11-18T14:34:05.119Z,3.88
2022-11-18T14:36:31.546Z,2.30
2022-11-18T14:39:31.483Z,5.03
2022-11-18T14:41:46.963Z,3.78
2022-11-18T14:44:13.859Z,4.70
2022-11-18T14:46:41.414Z,4.50
2022-11-18T14:49:12.507Z,4.22
2022-11-18T14:51:38.818Z,4.30
2022-11-18T14:54:05.127Z,3.80
2022-11-18T14:56:32.842Z,3.70
2022-11-18T14:58:59.129Z,3.53
2022-11-18T15:01:30.359Z,3.33
2022-11-18T15:03:57.323Z,3.28
2022-11-18T15:06:24.623Z,4.78
2022-11-18T15:08:52.561Z,3.88
2022-11-18T15:11:21.907Z,3.90
2022-11-18T15:13:48.574Z,3.50
2022-11-18T15:16:22.300Z,3.55
2022-11-18T15:18:49.649Z,3.10
2022-11-18T15:21:16.104Z,3.67
2022-11-18T15:23:42.762Z,4.55
2022-11-18T15:26:15.319Z,4.15
2022-11-18T15:28:41.616Z,3.95
2022-11-18T15:31:08.050Z,3.50
2022-11-18T15:33:34.329Z,3.65
2022-11-18T15:36:00.614Z,3.40
2022-11-18T15:38:26.960Z,3.92
2022-11-18T15:40:53.256Z,4.43
2022-11-18T15:43:19.535Z,4.28
2022-11-18T15:45:45.870Z,4.00
2022-11-18T15:48:12.211Z,4.65
2022-11-18T15:50:38.495Z,4.82
2022-11-18T15:53:04.794Z,3.80
2022-11-18T15:55:31.158Z,4.55
2022-11-18T15:57:57.432Z,4.80
2022-11-18T16:00:23.714Z,4.78
2022-11-18T16:02:50.058Z,4.40
2022-11-18T16:05:16.395Z,3.97
2022-11-18T16:07:42.776Z,4.60
2022-11-18T16:10:27.817Z,3.85
2022-11-18T16:12:54.133Z,4.15
2022-11-18T16:15:38.836Z,4.78
2022-11-18T16:18:05.222Z,5.05
2022-11-18T16:20:31.510Z,4.38
2022-11-18T16:22:57.809Z,5.13
2022-11-18T16:25:24.192Z,4.90
2022-11-18T16:27:50.569Z,4.40
2022-11-18T16:30:35.393Z,4.82
2022-11-18T16:33:01.762Z,5.18
2022-11-18T16:35:28.207Z,4.95
2022-11-18T16:37:54.812Z,4.88
2022-11-18T16:40:21.350Z,4.75
2022-11-18T16:42:48.402Z,5.85
2022-11-18T16:45:14.694Z,5.75
2022-11-18T16:47:40.991Z,4.80
2022-11-18T16:50:07.500Z,5.10
2022-11-18T16:52:33.786Z,5.60
2022-11-18T16:55:00.076Z,5.18
2022-11-18T16:57:26.349Z,4.95
2022-11-18T16:59:52.718Z,4.88
2022-11-18T17:02:23.558Z,7.35
2022-11-18T17:04:49.993Z,5.85
2022-11-18T17:07:17.735Z,5.15
2022-11-18T17:09:44.064Z,6.35
2022-11-18T17:12:10.367Z,5.50
2022-11-18T17:14:38.246Z,6.10
2022-11-18T17:17:04.562Z,6.70
2022-11-18T17:19:30.897Z,8.35
2022-11-18T17:21:57.180Z,7.95
2022-11-18T17:24:23.990Z,7.05
2022-11-18T17:26:51.917Z,8.40
2022-11-18T17:29:18.531Z,7.85
2022-11-18T17:31:44.973Z,8.73
2022-11-18T17:34:12.962Z,9.63
2022-11-18T17:36:39.424Z,8.13
2022-11-18T17:39:05.886Z,8.63
2022-11-18T17:41:50.584Z,7.82
2022-11-18T17:44:17.894Z,9.25
2022-11-18T17:46:44.704Z,10.77
2022-11-18T17:49:13.700Z,10.02
2022-11-18T17:51:40.337Z,10.82
2022-11-18T17:54:07.256Z,11.77
2022-11-18T17:56:33.545Z,12.50
2022-11-18T17:58:59.848Z,12.77
2022-11-18T18:01:26.189Z,13.52
2022-11-18T18:03:53.142Z,15.65
2022-11-18T18:06:22.829Z,13.77
2022-11-18T18:08:49.109Z,17.20
2022-11-18T18:11:18.953Z,17.67
2022-11-18T18:14:04.306Z,17.65
2022-11-18T18:16:31.410Z,17.08
2022-11-18T18:18:58.218Z,17.05
2022-11-18T18:21:24.822Z,18.75
2022-11-18T18:23:51.249Z,19.98
2022-11-18T18:26:17.548Z,18.92
2022-11-18T18:28:43.832Z,19.85
2022-11-18T18:31:11.006Z,19.17
2022-11-18T18:33:37.625Z,17.75
2022-11-18T18:36:05.596Z,17.58
2022-11-18T18:38:32.751Z,20.67
2022-11-18T18:41:03.350Z,16.67
2022-11-18T18:43:29.870Z,17.02
2022-11-18T18:46:18.407Z,18.55
2022-11-18T18:48:44.689Z,17.50
2022-11-18T18:51:11.044Z,17.15
2022-11-18T18:53:37.326Z,16.95
2022-11-18T18:56:03.691Z,16.50
2022-11-18T18:58:32.374Z,17.17
2022-11-18T19:01:09.333Z,20.60
2022-11-18T19:03:35.877Z,17.65
2022-11-18T19:06:53.607Z,18.85
2022-11-18T19:09:24.988Z,17.30
2022-11-18T19:12:10.081Z,18.55
2022-11-18T19:14:36.508Z,18.83
2022-11-18T19:17:09.509Z,22.08
2022-11-18T19:19:55.224Z,19.63
2022-11-18T19:22:21.567Z,18.95
2022-11-18T19:24:50.572Z,19.27
2022-11-18T19:27:17.617Z,21.23
2022-11-18T19:29:46.186Z,19.80
2022-11-18T19:32:12.862Z,19.08
2022-11-18T19:34:39.140Z,19.67
2022-11-18T19:37:05.492Z,20.35
2022-11-18T19:39:31.885Z,18.65
2022-11-18T19:41:58.701Z,21.75
2022-11-18T19:44:24.993Z,21.25
2022-11-18T19:46:51.451Z,25.27
2022-11-18T19:49:18.101Z,21.95
2022-11-18T19:51:44.633Z,21.80
2022-11-18T19:54:11.033Z,23.27
2022-11-18T19:56:37.300Z,22.02
2022-11-18T19:59:03.596Z,24.90
2022-11-18T20:01:30.151Z,23.98
2022-11-18T20:03:57.862Z,23.35
2022-11-18T20:06:25.395Z,24.55
2022-11-18T20:08:51.743Z,24.63
2022-11-18T20:11:18.990Z,24.92
2022-11-18T20:13:45.892Z,26.25
2022-11-18T20:16:15.518Z,24.60
2022-11-18T20:18:42.436Z,27.50
2022-11-18T20:21:14.977Z,25.75
2022-11-18T20:23:41.473Z,27.88
2022-11-18T20:26:12.000Z,27.80
2022-11-18T20:31:05.473Z,26.83
2022-11-18T20:33:35.759Z,27.45
2022-11-18T20:36:06.415Z,30.92
2022-11-18T20:38:32.835Z,28.95
2022-11-18T20:41:03.282Z,29.95
2022-11-18T20:45:56.029Z,32.70
2022-11-18T20:48:22.479Z,30.85
2022-11-18T20:50:49.319Z,31.48
2022-11-18T20:53:16.188Z,36.45
2022-11-18T20:55:42.559Z,35.10
2022-11-18T20:58:08.971Z,34.28
2022-11-18T21:00:35.385Z,33.97
2022-11-18T21:03:02.170Z,33.75
2022-11-18T21:05:30.954Z,33.50
2022-11-18T21:07:57.409Z,33.72
2022-11-18T21:10:23.696Z,34.25
2022-11-18T21:13:08.355Z,36.15
2022-11-18T21:15:35.155Z,36.20
2022-11-18T21:18:01.737Z,35.08
2022-11-18T21:20:46.705Z,36.38
2022-11-18T21:23:13.084Z,33.70
2022-11-18T21:25:40.053Z,32.95
2022-11-18T21:28:06.441Z,34.45
2022-11-18T21:30:32.719Z,36.70
2022-11-18T21:32:59.001Z,34.20
2022-11-18T21:35:25.254Z,33.45
2022-11-18T21:37:51.500Z,34.28
2022-11-18T21:40:17.888Z,34.97
2022-11-18T21:42:44.145Z,35.75
2022-11-18T21:45:10.459Z,33.05
2022-11-18T21:47:36.810Z,33.35
2022-11-18T21:50:03.170Z,30.90
2022-11-18T21:52:29.419Z,32.58
2022-11-18T21:54:55.670Z,32.95
2022-11-18T21:57:21.959Z,33.80
2022-11-18T21:59:48.233Z,35.33
2022-11-18T22:02:14.949Z,32.45
2022-11-18T22:04:53.562Z,32.70
2022-11-18T22:07:20.504Z,31.33
2022-11-18T22:09:46.928Z,34.20
2022-11-18T22:12:13.328Z,32.47
2022-11-18T22:14:40.353Z,33.33
2022-11-18T22:17:06.767Z,33.20
2022-11-18T22:19:33.283Z,31.10
2022-11-18T22:21:59.808Z,32.33
2022-11-18T22:24:26.349Z,32.38
2022-11-18T22:26:52.726Z,34.00
2022-11-18T22:29:19.206Z,34.58
2022-11-18T22:31:45.633Z,32.45
2022-11-18T22:34:11.990Z,32.92
2022-11-18T22:36:38.268Z,36.05
2022-11-18T22:39:04.540Z,32.88
2022-11-18T22:41:49.496Z,31.52
2022-11-18T22:44:16.382Z,31.17
2022-11-18T22:46:43.352Z,33.53
2022-11-18T22:49:10.205Z,31.88
2022-11-18T22:51:37.033Z,35.50
2022-11-18T22:56:49.940Z,30.83
2022-11-18T22:59:16.972Z,28.90
2022-11-18T23:01:43.734Z,27.77
2022-11-18T23:04:10.150Z,30.00
2022-11-18T23:06:36.437Z,34.08
2022-11-18T23:09:03.157Z,31.92
2022-11-18T23:11:48.871Z,32.70
2022-11-18T23:14:15.342Z,33.63
2022-11-18T23:16:42.681Z,34.25
2022-11-18T23:19:10.224Z,33.45
2022-11-18T23:21:36.589Z,29.30
2022-11-18T23:24:03.101Z,32.60
2022-11-18T23:26:29.410Z,31.83
2022-11-18T23:28:55.877Z,35.60
2022-11-18T23:31:23.445Z,33.08
2022-11-18T23:33:49.811Z,32.72
2022-11-18T23:36:17.048Z,32.28
2022-11-18T23:38:43.692Z,29.75
2022-11-18T23:41:11.417Z,31.90
2022-11-18T23:43:37.783Z,31.88
2022-11-18T23:46:04.664Z,31.45
2022-11-18T23:48:32.064Z,30.02
2022-11-18T23:51:00.292Z,28.40
2022-11-18T23:53:27.851Z,29.05
2022-11-18T23:55:54.832Z,28.80
2022-11-18T23:58:21.315Z,26.63
